Time;durP1;ratioP1;P1;durP2;ratioP2;P2;SDS_P1;SDS_P2;PMS_P1;PMS_P2;Temp;Humidity;BMP_temperature;BMP_pressure;BME280_temperature;BME280_humidity;BME280_pressure;Samples;Min_cycle;Max_cycle;Signal;HPM_P1;HPM_P2
2024/01/02 00:01:24;;;;;;;0.98;0.73;;;6.70;99.90;;;;;;6200410;23;20692;-62
2024/01/02 00:03:49;;;;;;;1.95;0.57;;;6.70;99.90;;;;;;6201842;23;20072;-63
2024/01/02 00:06:15;;;;;;;2.33;0.60;;;6.70;99.90;;;;;;6200996;23;20012;-63
2024/01/02 00:08:41;;;;;;;2.20;0.77;;;6.70;99.90;;;;;;6197827;23;20001;-63
2024/01/02 00:11:07;;;;;;;1.90;0.70;;;6.60;99.90;;;;;;6202916;23;20008;-63
2024/01/02 00:13:33;;;;;;;3.33;1.02;;;6.60;99.90;;;;;;6200818;23;20020;-63
2024/01/02 00:15:59;;;;;;;6.43;0.90;;;6.60;99.90;;;;;;6197535;23;20004;-63
2024/01/02 00:18:25;;;;;;;5.10;0.88;;;6.70;99.90;;;;;;6200467;23;20686;-65
2024/01/02 00:20:50;;;;;;;3.42;1.00;;;6.70;99.90;;;;;;6199463;23;20016;-64
2024/01/02 00:23:16;;;;;;;1.40;0.80;;;6.70;99.90;;;;;;6199595;23;20005;-63
2024/01/02 00:25:42;;;;;;;2.55;1.10;;;6.70;99.90;;;;;;6201956;23;20012;-64
2024/01/02 00:28:10;;;;;;;2.65;1.00;;;6.60;99.90;;;;;;6199925;23;20005;-69
2024/01/02 00:30:35;;;;;;;3.10;0.85;;;6.60;99.90;;;;;;6200448;23;20032;-71
2024/01/02 00:33:04;;;;;;;4.53;0.90;;;6.60;99.90;;;;;;6197509;23;20265;-70
2024/01/02 00:35:30;;;;;;;3.75;0.90;;;6.60;99.90;;;;;;6199491;23;20023;-70
2024/01/02 00:37:55;;;;;;;3.45;0.88;;;6.50;99.90;;;;;;6199117;23;20706;-70
2024/01/02 00:40:21;;;;;;;3.28;1.00;;;6.50;99.90;;;;;;6199481;23;20019;-71
2024/01/02 00:42:46;;;;;;;3.22;0.90;;;6.40;99.90;;;;;;6198164;23;20111;-70
2024/01/02 00:45:12;;;;;;;2.80;0.88;;;6.40;99.90;;;;;;6197179;23;20020;-64
2024/01/02 00:47:37;;;;;;;3.15;0.90;;;6.40;99.90;;;;;;6198838;23;20012;-63
2024/01/02 00:50:04;;;;;;;2.35;0.80;;;6.40;99.90;;;;;;6197800;23;20000;-64
2024/01/02 00:52:29;;;;;;;3.03;0.75;;;6.40;99.90;;;;;;6199295;23;20007;-64
2024/01/02 00:54:55;;;;;;;4.90;1.45;;;6.40;99.90;;;;;;6197280;23;20012;-63
2024/01/02 00:57:21;;;;;;;3.22;1.10;;;6.30;99.90;;;;;;6197561;23;20449;-63
2024/01/02 00:59:46;;;;;;;2.72;0.90;;;6.30;99.90;;;;;;6195988;23;20008;-63
2024/01/02 01:02:12;;;;;;;2.75;0.80;;;6.30;99.90;;;;;;6199697;23;20016;-63
2024/01/02 01:04:45;;;;;;;1.02;0.60;;;6.30;99.90;;;;;;6194518;23;20000;-68
2024/01/02 01:07:12;;;;;;;1.65;0.95;;;6.20;99.90;;;;;;6199138;23;20062;-69
2024/01/02 01:09:38;;;;;;;2.25;0.68;;;5.90;99.90;;;;;;6199267;23;20415;-69
2024/01/02 01:12:04;;;;;;;2.35;0.80;;;5.80;99.90;;;;;;6199282;23;20034;-69
2024/01/02 01:14:30;;;;;;;1.50;0.73;;;5.80;99.90;;;;;;6201667;23;20039;-69
2024/01/02 01:16:56;;;;;;;1.88;0.68;;;5.70;99.90;;;;;;6199558;23;20430;-69
2024/01/02 01:19:21;;;;;;;6.43;1.15;;;5.70;99.90;;;;;;6198478;23;20008;-69
2024/01/02 01:21:47;;;;;;;4.50;1.08;;;5.70;99.90;;;;;;6198460;23;20016;-63
2024/01/02 01:24:13;;;;;;;3.30;1.00;;;5.70;99.90;;;;;;6200188;23;20035;-63
2024/01/02 01:26:39;;;;;;;2.08;0.98;;;5.80;99.90;;;;;;6199838;23;20008;-63
2024/01/02 01:29:04;;;;;;;4.65;1.15;;;5.80;99.90;;;;;;6199037;23;20317;-62
2024/01/02 01:31:30;;;;;;;2.33;0.80;;;5.80;99.90;;;;;;6199813;23;20016;-63
2024/01/02 01:33:56;;;;;;;3.95;1.30;;;5.80;99.90;;;;;;6199343;23;20150;-63
2024/01/02 01:36:22;;;;;;;3.55;1.00;;;5.80;99.90;;;;;;6197168;23;20138;-63
2024/01/02 01:38:47;;;;;;;4.30;1.02;;;5.80;99.90;;;;;;6199486;23;20009;-63
2024/01/02 01:41:13;;;;;;;4.45;1.10;;;5.80;99.90;;;;;;6200064;23;20122;-62
2024/01/02 01:43:39;;;;;;;2.88;1.10;;;5.80;99.90;;;;;;6199088;23;20046;-62
2024/01/02 01:46:06;;;;;;;3.67;1.10;;;5.80;99.90;;;;;;6201165;23;20184;-63
2024/01/02 01:48:32;;;;;;;3.00;1.02;;;5.80;99.90;;;;;;6194888;23;20367;-62
2024/01/02 01:50:58;;;;;;;3.20;1.02;;;5.80;99.90;;;;;;6195856;23;20009;-63
2024/01/02 01:53:24;;;;;;;2.35;1.05;;;5.80;99.90;;;;;;6197892;23;20062;-63
2024/01/02 01:55:50;;;;;;;2.47;1.00;;;5.80;99.90;;;;;;6198099;23;20460;-63
2024/01/02 01:58:17;;;;;;;2.65;1.10;;;5.80;99.90;;;;;;6198566;23;20087;-63
2024/01/02 02:00:43;;;;;;;1.85;0.95;;;5.80;99.90;;;;;;6199138;23;20096;-62
2024/01/02 02:03:10;;;;;;;2.33;1.00;;;5.70;99.90;;;;;;6200069;23;20005;-62
2024/01/02 02:05:36;;;;;;;2.38;0.90;;;5.70;99.90;;;;;;6199251;23;20039;-62
2024/01/02 02:08:02;;;;;;;2.22;1.08;;;5.80;99.90;;;;;;6200514;23;20036;-62
2024/01/02 02:10:29;;;;;;;3.22;1.10;;;5.80;99.90;;;;;;6198599;23;20005;-63
2024/01/02 02:12:55;;;;;;;2.72;1.00;;;5.80;99.90;;;;;;6200108;23;20019;-62
2024/01/02 02:15:21;;;;;;;3.33;1.10;;;5.70;99.90;;;;;;6202207;23;20000;-62
2024/01/02 02:17:47;;;;;;;3.70;1.00;;;5.70;99.90;;;;;;6201484;23;20088;-62
2024/01/02 02:20:12;;;;;;;2.60;0.70;;;5.70;99.90;;;;;;6199370;23;20008;-68
2024/01/02 02:22:42;;;;;;;2.33;0.98;;;5.70;99.90;;;;;;6202511;23;20019;-69
2024/01/02 02:25:08;;;;;;;2.63;1.13;;;5.80;99.90;;;;;;6199368;23;20008;-68
2024/01/02 02:27:34;;;;;;;4.53;1.05;;;5.80;99.90;;;;;;6201452;23;20464;-68
2024/01/02 02:30:00;;;;;;;3.63;1.50;;;5.70;99.90;;;;;;6199538;23;20006;-69
2024/01/02 02:32:26;;;;;;;2.78;1.00;;;5.70;99.90;;;;;;6202334;23;20005;-68
2024/01/02 02:34:51;;;;;;;2.22;0.82;;;5.80;99.90;;;;;;6201346;23;20080;-68
2024/01/02 02:37:17;;;;;;;3.42;1.08;;;5.80;99.90;;;;;;6200565;23;20669;-68
2024/01/02 02:39:43;;;;;;;1.67;0.60;;;5.70;99.90;;;;;;6199440;23;20001;-69
2024/01/02 02:42:08;;;;;;;4.70;1.02;;;5.60;99.90;;;;;;6200426;23;20460;-69
2024/01/02 02:44:34;;;;;;;3.63;0.77;;;5.60;99.90;;;;;;6200158;23;20040;-69
2024/01/02 02:47:00;;;;;;;2.53;1.08;;;5.60;99.90;;;;;;6202169;23;20044;-68
2024/01/02 02:49:26;;;;;;;2.08;0.60;;;5.50;99.90;;;;;;6199877;23;20009;-69
2024/01/02 02:51:52;;;;;;;2.78;1.00;;;5.50;99.90;;;;;;6201450;23;20085;-69
2024/01/02 02:54:18;;;;;;;1.80;0.90;;;5.50;99.90;;;;;;6201624;23;20084;-69
2024/01/02 02:56:45;;;;;;;5.28;1.00;;;5.50;99.90;;;;;;6202868;23;20083;-68
2024/01/02 02:59:11;;;;;;;2.38;1.10;;;5.50;99.90;;;;;;6201421;23;20084;-68
2024/01/02 03:01:37;;;;;;;2.35;0.90;;;5.60;99.90;;;;;;6200369;23;20040;-69
2024/01/02 03:04:02;;;;;;;5.28;1.17;;;5.60;99.90;;;;;;6201706;23;20055;-68
2024/01/02 03:06:28;;;;;;;4.90;1.20;;;5.70;99.90;;;;;;6199537;23;20005;-68
2024/01/02 03:08:54;;;;;;;2.70;0.82;;;5.60;99.90;;;;;;6201400;23;20036;-68
2024/01/02 03:11:20;;;;;;;1.67;0.73;;;5.60;99.90;;;;;;6200540;23;20039;-69
2024/01/02 03:13:45;;;;;;;2.15;1.00;;;5.60;99.90;;;;;;6200244;23;20026;-68
2024/01/02 03:16:12;;;;;;;1.70;0.88;;;5.60;99.90;;;;;;6199984;23;20016;-69
2024/01/02 03:18:38;;;;;;;2.13;1.20;;;5.70;99.90;;;;;;6198106;23;20753;-68
2024/01/02 03:21:05;;;;;;;5.20;1.92;;;5.60;99.90;;;;;;6199887;23;20020;-68
2024/01/02 03:23:30;;;;;;;2.90;1.02;;;5.70;99.90;;;;;;6200117;23;20000;-68
2024/01/02 03:25:56;;;;;;;2.83;1.20;;;5.70;99.90;;;;;;6202083;23;20016;-69
2024/01/02 03:28:21;;;;;;;2.67;1.10;;;5.70;99.90;;;;;;6201716;23;20520;-68
2024/01/02 03:30:47;;;;;;;3.60;1.10;;;5.60;99.90;;;;;;6200108;23;20135;-69
2024/01/02 03:33:12;;;;;;;3.17;1.05;;;5.50;99.90;;;;;;6200764;23;20271;-68
2024/01/02 03:35:38;;;;;;;2.25;0.70;;;5.60;99.90;;;;;;6201941;23;20453;-68
2024/01/02 03:38:04;;;;;;;1.52;0.95;;;5.60;99.90;;;;;;6203636;23;20011;-69
2024/01/02 03:40:29;;;;;;;4.70;1.25;;;5.50;99.90;;;;;;6200725;23;20123;-69
2024/01/02 03:42:55;;;;;;;3.85;1.08;;;5.50;99.90;;;;;;6202939;23;20008;-68
2024/01/02 03:45:20;;;;;;;3.55;1.27;;;5.50;99.90;;;;;;6202931;23;20024;-69
2024/01/02 03:47:46;;;;;;;2.50;1.10;;;5.50;99.90;;;;;;6203226;23;20004;-68
2024/01/02 03:50:11;;;;;;;2.22;0.85;;;5.50;99.90;;;;;;6202814;23;20498;-62
2024/01/02 03:52:37;;;;;;;4.13;1.13;;;5.50;99.90;;;;;;6199629;23;20050;-62
2024/01/02 03:55:03;;;;;;;5.22;1.08;;;5.60;99.90;;;;;;6202115;23;20001;-62
2024/01/02 03:57:29;;;;;;;2.80;0.93;;;5.50;99.90;;;;;;6201831;23;20015;-62
2024/01/02 03:59:54;;;;;;;1.25;0.70;;;5.40;99.90;;;;;;6203046;23;20004;-62
2024/01/02 04:02:20;;;;;;;3.13;0.73;;;5.30;99.90;;;;;;6200741;23;20071;-62
2024/01/02 04:04:46;;;;;;;3.28;1.20;;;5.20;99.90;;;;;;6201617;23;20198;-62
2024/01/02 04:07:11;;;;;;;1.65;1.02;;;5.30;99.90;;;;;;6203523;23;20045;-62
2024/01/02 04:09:37;;;;;;;2.78;1.02;;;5.20;99.90;;;;;;6201553;23;20007;-62
2024/01/02 04:12:03;;;;;;;3.58;1.42;;;5.10;99.90;;;;;;6201833;23;20008;-62
2024/01/02 04:14:28;;;;;;;3.20;1.00;;;5.10;99.90;;;;;;6201951;23;20510;-63
2024/01/02 04:16:54;;;;;;;2.97;1.08;;;5.10;99.90;;;;;;6203449;23;20687;-62
2024/01/02 04:19:21;;;;;;;3.90;1.15;;;5.10;99.90;;;;;;6202263;23;20012;-62
2024/01/02 04:21:47;;;;;;;4.60;1.13;;;5.00;99.90;;;;;;6199752;23;20087;-62
2024/01/02 04:24:14;;;;;;;5.43;1.60;;;5.00;99.90;;;;;;6200858;23;20115;-62
2024/01/02 04:26:40;;;;;;;3.83;1.55;;;5.00;99.90;;;;;;6202557;23;20393;-67
2024/01/02 04:29:06;;;;;;;2.50;1.40;;;5.00;99.90;;;;;;6202876;23;20036;-68
2024/01/02 04:31:31;;;;;;;2.55;1.10;;;4.90;99.90;;;;;;6203358;23;20422;-68
2024/01/02 04:33:57;;;;;;;2.25;1.10;;;5.00;99.90;;;;;;6201620;23;20005;-68
2024/01/02 04:36:25;;;;;;;3.17;1.15;;;5.20;99.90;;;;;;6203350;23;20371;-68
2024/01/02 04:38:51;;;;;;;5.13;2.00;;;5.30;99.90;;;;;;6202792;23;20011;-68
2024/01/02 04:41:18;;;;;;;9.55;3.35;;;5.40;99.90;;;;;;6201023;23;20442;-68
2024/01/02 04:43:44;;;;;;;4.57;2.80;;;5.60;99.90;;;;;;6201468;23;20746;-68
2024/01/02 04:46:10;;;;;;;6.97;3.05;;;5.70;99.90;;;;;;6200226;23;20024;-68
2024/01/02 04:48:35;;;;;;;4.43;2.40;;;5.80;99.90;;;;;;6202040;23;20359;-68
2024/01/02 04:51:02;;;;;;;4.93;2.15;;;5.80;99.90;;;;;;6200657;23;20008;-68
2024/01/02 04:53:28;;;;;;;12.80;5.68;;;6.00;99.90;;;;;;6203495;23;20075;-68
2024/01/02 04:55:53;;;;;;;8.25;4.68;;;6.00;99.90;;;;;;6202835;23;20345;-69
2024/01/02 04:58:19;;;;;;;9.35;4.93;;;6.10;99.90;;;;;;6202110;23;20015;-69
2024/01/02 05:00:45;;;;;;;8.85;4.38;;;6.10;99.90;;;;;;6199543;23;20110;-67
2024/01/02 05:03:10;;;;;;;7.60;3.63;;;6.20;99.90;;;;;;6199380;23;20004;-69
2024/01/02 05:05:36;;;;;;;7.90;4.38;;;6.20;99.90;;;;;;6199393;23;20312;-62
2024/01/02 05:08:01;;;;;;;8.95;4.50;;;6.20;99.90;;;;;;6202098;23;20326;-63
2024/01/02 05:10:27;;;;;;;5.93;2.88;;;6.20;99.90;;;;;;6201719;23;20054;-63
2024/01/02 05:12:52;;;;;;;7.30;4.30;;;6.20;99.90;;;;;;6199426;23;20012;-62
2024/01/02 05:15:18;;;;;;;7.78;3.08;;;6.10;99.90;;;;;;6201071;23;20005;-62
2024/01/02 05:17:44;;;;;;;7.05;3.53;;;6.00;99.90;;;;;;6200247;23;20001;-62
2024/01/02 05:20:10;;;;;;;3.42;2.25;;;6.10;99.90;;;;;;6200976;23;20386;-62
2024/01/02 05:22:36;;;;;;;5.72;2.80;;;5.90;99.90;;;;;;6201118;23;20012;-62
2024/01/02 05:25:01;;;;;;;6.15;3.20;;;5.80;99.90;;;;;;6201099;23;20079;-62
2024/01/02 05:27:27;;;;;;;3.25;1.90;;;5.80;99.90;;;;;;6202568;23;20000;-62
2024/01/02 05:29:52;;;;;;;3.72;1.83;;;5.80;99.90;;;;;;6201762;23;20009;-62
2024/01/02 05:32:18;;;;;;;1.98;1.15;;;5.80;99.90;;;;;;6202037;23;20009;-62
2024/01/02 05:34:43;;;;;;;3.95;1.75;;;5.90;99.90;;;;;;6199297;23;20326;-62
2024/01/02 05:37:09;;;;;;;3.05;1.00;;;6.00;99.90;;;;;;6201414;23;20008;-62
2024/01/02 05:39:34;;;;;;;2.58;1.15;;;6.10;99.90;;;;;;6202168;23;20083;-62
2024/01/02 05:42:00;;;;;;;2.28;1.10;;;6.00;99.90;;;;;;6200535;23;20012;-62
2024/01/02 05:44:26;;;;;;;5.20;1.35;;;6.10;99.90;;;;;;6202255;23;20009;-62
2024/01/02 05:46:51;;;;;;;2.65;1.23;;;6.10;99.90;;;;;;6201488;23;20012;-62
2024/01/02 05:49:17;;;;;;;4.20;1.30;;;6.10;99.90;;;;;;6200477;23;20005;-62
2024/01/02 05:51:42;;;;;;;3.28;1.05;;;6.20;99.90;;;;;;6200305;23;20080;-62
2024/01/02 05:54:08;;;;;;;3.00;1.15;;;6.20;99.90;;;;;;6200690;23;20066;-62
2024/01/02 05:56:33;;;;;;;7.22;2.60;;;6.20;99.90;;;;;;6202512;23;20011;-62
2024/01/02 05:58:59;;;;;;;8.00;3.70;;;6.10;99.90;;;;;;6200948;23;20008;-69
2024/01/02 06:01:25;;;;;;;4.45;2.78;;;6.10;99.90;;;;;;6202123;23;20390;-69
2024/01/02 06:03:50;;;;;;;3.78;2.50;;;6.10;99.90;;;;;;6201128;23;20005;-69
2024/01/02 06:06:16;;;;;;;2.40;1.83;;;6.10;99.90;;;;;;6201135;23;20145;-68
2024/01/02 06:08:42;;;;;;;3.42;1.45;;;6.10;99.90;;;;;;6201177;23;19997;-68
2024/01/02 06:11:10;;;;;;;3.38;1.42;;;6.00;99.90;;;;;;6200501;23;20330;-69
2024/01/02 06:13:35;;;;;;;3.70;1.80;;;6.00;99.90;;;;;;6202152;23;20001;-68
2024/01/02 06:16:01;;;;;;;4.10;1.70;;;6.10;99.90;;;;;;6200801;23;20019;-68
2024/01/02 06:18:27;;;;;;;5.22;1.98;;;6.10;99.90;;;;;;6201792;23;20335;-69
2024/01/02 06:20:52;;;;;;;4.43;1.55;;;6.10;99.90;;;;;;6200985;23;20576;-68
2024/01/02 06:23:18;;;;;;;3.70;1.40;;;6.00;99.90;;;;;;6199332;23;20001;-68
2024/01/02 06:25:43;;;;;;;2.92;1.48;;;6.00;99.90;;;;;;6201652;23;20005;-69
2024/01/02 06:28:09;;;;;;;2.03;1.10;;;5.90;99.90;;;;;;6200861;23;20020;-69
2024/01/02 06:30:34;;;;;;;3.88;1.55;;;5.80;99.90;;;;;;6201096;23;20004;-68
2024/01/02 06:33:00;;;;;;;4.30;2.10;;;5.70;99.90;;;;;;6201986;23;20087;-68
2024/01/02 06:35:26;;;;;;;11.90;6.03;;;5.60;99.90;;;;;;6202080;23;20053;-62
2024/01/02 06:37:51;;;;;;;13.65;6.55;;;5.60;99.90;;;;;;6200702;23;20008;-68
2024/01/02 06:40:17;;;;;;;3.58;1.60;;;5.30;99.90;;;;;;6200804;23;20012;-68
2024/01/02 06:42:42;;;;;;;3.17;1.67;;;5.30;99.90;;;;;;6200724;23;20067;-68
2024/01/02 06:45:08;;;;;;;3.35;1.65;;;5.30;99.90;;;;;;6200337;23;20029;-68
2024/01/02 06:47:34;;;;;;;3.13;1.60;;;5.30;99.90;;;;;;6201180;23;20004;-68
2024/01/02 06:50:00;;;;;;;4.75;1.67;;;5.20;99.90;;;;;;6201450;23;20004;-68
2024/01/02 06:52:26;;;;;;;3.45;1.60;;;5.20;99.90;;;;;;6199294;23;20055;-68
2024/01/02 06:54:52;;;;;;;5.57;1.73;;;5.30;99.90;;;;;;6199788;23;20008;-68
2024/01/02 06:57:18;;;;;;;5.10;1.55;;;5.40;99.90;;;;;;6199792;23;20011;-68
2024/01/02 06:59:45;;;;;;;2.88;1.40;;;5.50;99.90;;;;;;6200497;23;20004;-68
2024/01/02 07:02:10;;;;;;;3.20;1.77;;;5.60;99.90;;;;;;6197994;23;20824;-68
2024/01/02 07:04:39;;;;;;;5.75;2.30;;;5.60;99.90;;;;;;6201812;23;20015;-68
2024/01/02 07:07:04;;;;;;;5.20;1.90;;;5.60;99.90;;;;;;6198866;23;20011;-68
2024/01/02 07:09:30;;;;;;;3.88;2.25;;;5.50;99.90;;;;;;6201330;23;20009;-68
2024/01/02 07:11:55;;;;;;;5.60;1.98;;;5.40;99.90;;;;;;6202571;23;20004;-69
2024/01/02 07:14:23;;;;;;;13.80;5.07;;;5.20;99.90;;;;;;6202007;23;20008;-69
2024/01/02 07:16:48;;;;;;;15.35;6.40;;;5.20;99.90;;;;;;6200681;23;20505;-69
2024/01/02 07:19:14;;;;;;;6.03;2.35;;;5.30;99.90;;;;;;6200648;23;20028;-69
2024/01/02 07:21:40;;;;;;;4.72;2.30;;;5.40;99.90;;;;;;6202483;23;20025;-69
2024/01/02 07:24:05;;;;;;;7.07;2.60;;;5.50;99.90;;;;;;6202132;23;20472;-69
2024/01/02 07:26:31;;;;;;;6.03;2.25;;;5.50;99.90;;;;;;6203116;23;20009;-70
2024/01/02 07:28:56;;;;;;;3.95;1.70;;;5.40;99.90;;;;;;6202979;23;20008;-70
2024/01/02 07:31:23;;;;;;;3.20;2.17;;;5.40;99.90;;;;;;6202466;23;20597;-70
2024/01/02 07:33:49;;;;;;;2.78;2.00;;;5.50;99.90;;;;;;6202031;23;20004;-71
2024/01/02 07:36:16;;;;;;;4.65;2.80;;;5.60;99.90;;;;;;6202194;23;20344;-72
2024/01/02 07:38:42;;;;;;;7.93;2.58;;;5.50;99.90;;;;;;6201663;23;20000;-71
2024/01/02 07:41:07;;;;;;;5.93;2.60;;;5.50;99.90;;;;;;6203886;23;20020;-71
2024/01/02 07:43:33;;;;;;;5.15;2.95;;;5.50;99.90;;;;;;6204139;23;20075;-71
2024/01/02 07:45:59;;;;;;;3.85;2.08;;;5.60;99.90;;;;;;6202131;23;20103;-71
2024/01/02 07:48:25;;;;;;;5.68;2.17;;;5.50;99.90;;;;;;6204737;23;19996;-71
2024/01/02 07:50:50;;;;;;;5.80;2.60;;;5.40;99.90;;;;;;6203301;23;20383;-71
2024/01/02 07:53:19;;;;;;;5.03;1.80;;;5.30;99.90;;;;;;6201058;23;20044;-71
2024/01/02 07:55:46;;;;;;;5.57;1.75;;;5.30;99.90;;;;;;6201806;23;20004;-69
2024/01/02 07:58:11;;;;;;;3.58;1.45;;;5.30;99.90;;;;;;6204484;23;20011;-69
2024/01/02 08:00:37;;;;;;;3.65;1.52;;;5.40;99.90;;;;;;6203082;23;20017;-68
2024/01/02 08:03:03;;;;;;;3.10;1.65;;;5.40;99.90;;;;;;6200815;23;20005;-69
2024/01/02 08:05:28;;;;;;;2.58;1.50;;;5.60;99.90;;;;;;6201401;23;20450;-70
2024/01/02 08:07:54;;;;;;;5.55;1.45;;;5.70;99.90;;;;;;6201178;23;20634;-65
2024/01/02 08:10:20;;;;;;;3.65;1.30;;;5.80;99.90;;;;;;6201993;23;20012;-67
2024/01/02 08:12:45;;;;;;;2.22;1.30;;;5.90;99.90;;;;;;6203278;23;20000;-67
2024/01/02 08:15:12;;;;;;;1.98;1.40;;;6.00;99.90;;;;;;6202987;23;20020;-67
2024/01/02 08:17:37;;;;;;;2.33;1.48;;;6.10;99.90;;;;;;6203101;23;20011;-67
2024/01/02 08:20:04;;;;;;;3.80;1.55;;;6.00;99.90;;;;;;6202522;23;20176;-69
2024/01/02 08:22:29;;;;;;;2.83;1.63;;;6.00;99.90;;;;;;6201129;23;20510;-68
2024/01/02 08:24:55;;;;;;;8.05;1.67;;;6.00;99.90;;;;;;6202843;23;20008;-69
2024/01/02 08:27:24;;;;;;;10.68;5.55;;;6.10;99.90;;;;;;6201043;23;20011;-62
2024/01/02 08:29:50;;;;;;;12.80;6.20;;;6.20;99.90;;;;;;6197699;23;20501;-62
2024/01/02 08:32:16;;;;;;;12.20;4.18;;;6.30;99.90;;;;;;6197583;23;20001;-61
2024/01/02 08:34:42;;;;;;;8.50;2.30;;;6.40;99.90;;;;;;6200041;23;20005;-62
2024/01/02 08:37:07;;;;;;;3.58;2.00;;;6.50;99.90;;;;;;6199443;23;20011;-62
2024/01/02 08:39:33;;;;;;;17.33;3.28;;;6.60;99.90;;;;;;6200089;23;20011;-62
2024/01/02 08:41:59;;;;;;;16.92;3.47;;;6.70;99.90;;;;;;6200156;23;20012;-61
2024/01/02 08:44:24;;;;;;;5.88;2.08;;;6.80;99.90;;;;;;6199850;23;20004;-61
2024/01/02 08:46:50;;;;;;;4.90;2.83;;;6.90;99.90;;;;;;6201169;23;20013;-61
2024/01/02 08:49:15;;;;;;;7.63;4.43;;;7.00;99.90;;;;;;6201043;23;20496;-61
2024/01/02 08:51:41;;;;;;;6.80;2.97;;;7.10;99.90;;;;;;6200210;23;20087;-62
2024/01/02 08:54:06;;;;;;;7.38;3.22;;;7.20;99.90;;;;;;6196461;23;20028;-61
2024/01/02 08:56:32;;;;;;;7.45;3.45;;;7.10;99.90;;;;;;6198702;23;20004;-62
2024/01/02 08:58:58;;;;;;;10.10;4.53;;;7.10;99.90;;;;;;6199228;23;20081;-61
2024/01/02 09:01:24;;;;;;;91.88;35.50;;;7.20;99.90;;;;;;6197731;23;20349;-62
2024/01/02 09:03:50;;;;;;;11.07;5.82;;;7.40;99.90;;;;;;6199299;23;20059;-61
2024/01/02 09:06:19;;;;;;;5.03;2.30;;;7.60;99.90;;;;;;6199364;23;20759;-61
2024/01/02 09:08:45;;;;;;;6.72;3.03;;;7.50;99.90;;;;;;6200090;23;20430;-62
2024/01/02 09:11:11;;;;;;;5.60;2.38;;;7.50;99.90;;;;;;6199764;23;20008;-61
2024/01/02 09:13:37;;;;;;;3.85;2.10;;;7.40;99.90;;;;;;6198190;23;20287;-61
2024/01/02 09:16:03;;;;;;;5.88;2.20;;;7.30;99.90;;;;;;6199451;23;20008;-62
2024/01/02 09:18:29;;;;;;;2.85;1.63;;;7.20;99.90;;;;;;6200089;23;20350;-61
2024/01/02 09:20:55;;;;;;;6.10;1.50;;;7.20;99.90;;;;;;6197998;23;20059;-61
2024/01/02 09:23:20;;;;;;;2.50;1.23;;;7.30;99.90;;;;;;6199514;23;20062;-72
2024/01/02 09:25:47;;;;;;;2.05;1.20;;;7.40;99.90;;;;;;6200031;23;20435;-71
2024/01/02 09:28:17;;;;;;;4.88;1.42;;;7.40;99.90;;;;;;6201479;23;20001;-71
2024/01/02 09:30:43;;;;;;;4.05;1.30;;;7.40;99.90;;;;;;6200169;23;20374;-70
2024/01/02 09:33:09;;;;;;;12.45;7.97;;;7.40;99.90;;;;;;6201780;23;20020;-70
2024/01/02 09:35:36;;;;;;;24.63;14.82;;;7.50;99.90;;;;;;6198305;23;20074;-70
2024/01/02 09:38:04;;;;;;;14.75;9.77;;;7.70;99.90;;;;;;6197418;23;20001;-71
2024/01/02 09:40:38;;;;;;;13.63;7.55;;;7.80;99.90;;;;;;6200104;23;20015;-61
2024/01/02 09:43:13;;;;;;;5.40;3.42;;;7.90;99.90;;;;;;6197012;23;20008;-61
2024/01/02 09:45:51;;;;;;;14.25;7.47;;;7.90;99.90;;;;;;6195981;23;20077;-62
2024/01/02 09:48:35;;;;;;;94.05;38.38;;;7.90;99.90;;;;;;6199090;23;20079;-62
2024/01/02 09:51:15;;;;;;;39.38;21.55;;;8.00;99.90;;;;;;6197566;23;20048;-62
2024/01/02 09:54:05;;;;;;;36.10;18.27;;;8.10;99.90;;;;;;6198456;23;20498;-61
2024/01/02 09:56:49;;;;;;;41.42;18.88;;;8.10;99.90;;;;;;6199807;23;20008;-63
2024/01/02 09:59:15;;;;;;;14.82;8.57;;;8.10;99.90;;;;;;6197587;23;20406;-71
2024/01/02 10:01:56;;;;;;;13.13;7.55;;;8.20;99.90;;;;;;6196213;23;20083;-72
2024/01/02 10:04:52;;;;;;;13.82;9.20;;;8.20;99.90;;;;;;6200037;23;20059;-72
2024/01/02 10:07:25;;;;;;;14.02;7.35;;;8.20;99.90;;;;;;6152184;23;20009;-69
2024/01/02 10:10:39;;;;;;;9.55;6.32;;;8.10;99.90;;;;;;6199908;23;20000;-69
2024/01/02 10:13:24;;;;;;;23.83;12.35;;;8.00;99.90;;;;;;6106374;23;20025;-69
2024/01/02 10:16:13;;;;;;;25.27;14.75;;;8.10;99.90;;;;;;6198937;23;20008;-69
2024/01/02 10:19:06;;;;;;;21.20;13.20;;;8.20;99.90;;;;;;6197930;23;20763;-62
2024/01/02 10:21:48;;;;;;;26.85;16.45;;;8.20;99.90;;;;;;6199178;23;20123;-62
2024/01/02 10:24:40;;;;;;;10.52;6.40;;;8.20;99.90;;;;;;6198639;23;20008;-62
2024/01/02 10:27:15;;;;;;;9.10;4.72;;;8.20;99.90;;;;;;6198112;23;20059;-62
2024/01/02 10:30:06;;;;;;;9.95;4.10;;;8.10;99.90;;;;;;6198897;23;20007;-62
2024/01/02 10:32:48;;;;;;;8.27;5.15;;;7.80;99.90;;;;;;6198210;23;20082;-63
2024/01/02 10:35:36;;;;;;;24.45;16.25;;;7.60;99.90;;;;;;6196712;23;20087;-62
2024/01/02 10:38:42;;;;;;;24.77;20.13;;;7.50;99.90;;;;;;6196685;23;20004;-62
2024/01/02 10:41:49;;;;;;;9.00;7.30;;;7.60;99.90;;;;;;6179883;23;20074;-62
2024/01/02 10:44:46;;;;;;;8.90;7.68;;;7.40;99.90;;;;;;6166227;23;20171;-61
2024/01/02 10:47:26;;;;;;;10.77;9.15;;;7.20;99.90;;;;;;6200679;23;20484;-63
2024/01/02 10:49:58;;;;;;;9.93;8.25;;;7.20;99.90;;;;;;6196722;23;20004;-62
2024/01/02 10:52:31;;;;;;;9.45;5.85;;;7.20;99.90;;;;;;6192886;23;20012;-62
2024/01/02 10:55:30;;;;;;;10.48;6.50;;;7.30;99.90;;;;;;6197861;23;20470;-62
2024/01/02 10:58:03;;;;;;;8.80;6.68;;;7.50;99.90;;;;;;6198456;23;20035;-62
2024/01/02 11:00:39;;;;;;;38.38;23.38;;;7.50;99.90;;;;;;6172609;23;20103;-62
2024/01/02 11:03:10;;;;;;;20.75;14.30;;;7.50;99.90;;;;;;6199920;23;20044;-62
2024/01/02 11:05:44;;;;;;;21.33;12.60;;;7.60;99.90;;;;;;6197160;23;19996;-61
2024/01/02 11:08:21;;;;;;;8.82;6.80;;;7.60;99.90;;;;;;6199587;23;20008;-62
2024/01/02 11:10:57;;;;;;;10.80;7.60;;;7.30;99.90;;;;;;6201291;23;20005;-62
2024/01/02 11:13:26;;;;;;;10.13;6.95;;;7.10;99.90;;;;;;6199173;23;20012;-69
2024/01/02 11:16:18;;;;;;;7.32;5.88;;;7.10;99.90;;;;;;6200759;23;20035;-69
2024/01/02 11:18:49;;;;;;;;;;;6.80;99.90;;;;;;6185501;23;20016;-69
2024/01/02 11:21:30;;;;;;;10.07;7.53;;;6.70;99.90;;;;;;6196398;23;19954;-69
2024/01/02 11:24:00;;;;;;;9.50;6.93;;;6.60;99.90;;;;;;6200386;23;20074;-68
2024/01/02 11:26:33;;;;;;;7.55;6.43;;;6.40;99.90;;;;;;6196704;23;20008;-70
2024/01/02 11:29:03;;;;;;;7.65;5.70;;;6.30;99.90;;;;;;6199002;23;20031;-68
2024/01/02 11:31:34;;;;;;;7.82;6.43;;;6.30;99.90;;;;;;6201499;23;20009;-61
2024/01/02 11:34:26;;;;;;;14.48;10.73;;;6.20;99.90;;;;;;6199247;23;20036;-62
2024/01/02 11:37:12;;;;;;;11.15;8.60;;;6.40;99.90;;;;;;6199066;23;20007;-62
2024/01/02 11:40:10;;;;;;;12.40;7.50;;;6.60;99.90;;;;;;6199125;23;20001;-62
2024/01/02 11:42:58;;;;;;;9.07;7.30;;;6.80;99.90;;;;;;6200695;23;20012;-62
2024/01/02 11:45:29;;;;;;;10.00;7.85;;;6.80;99.90;;;;;;6197364;23;20028;-61
2024/01/02 11:48:26;;;;;;;9.93;8.73;;;6.80;99.90;;;;;;6202166;23;20001;-62
2024/01/02 11:50:57;;;;;;;8.63;7.70;;;6.80;99.90;;;;;;6198583;23;20039;-62
2024/01/02 11:53:55;;;;;;;12.87;9.57;;;6.70;99.90;;;;;;6198440;23;20051;-62
2024/01/02 11:56:28;;;;;;;27.48;16.63;;;6.70;99.90;;;;;;6199933;23;20498;-63
2024/01/02 11:59:16;;;;;;;12.43;9.10;;;6.70;99.90;;;;;;6195270;23;20004;-65
2024/01/02 12:01:56;;;;;;;11.05;8.45;;;6.70;99.90;;;;;;6201442;23;20095;-63
2024/01/02 12:04:59;;;;;;;7.63;6.70;;;6.70;99.90;;;;;;6201868;23;19996;-64
2024/01/02 12:07:26;;;;;;;7.93;6.32;;;6.60;99.90;;;;;;6198974;23;20004;-62
2024/01/02 12:09:52;;;;;;;9.40;7.45;;;6.30;99.90;;;;;;6201918;23;20031;-63
2024/01/02 12:13:02;;;;;;;12.32;8.50;;;6.30;99.90;;;;;;6199875;23;20005;-64
2024/01/02 12:15:33;;;;;;;15.55;12.88;;;6.40;99.90;;;;;;6105634;23;20010;-62
2024/01/02 12:18:02;;;;;;;16.70;14.00;;;6.50;99.90;;;;;;6186623;23;20008;-62
2024/01/02 12:20:44;;;;;;;14.57;10.57;;;6.30;99.90;;;;;;6199603;23;20001;-63
2024/01/02 12:23:10;;;;;;;9.07;7.38;;;6.20;99.90;;;;;;6199634;23;20039;-63
2024/01/02 12:25:42;;;;;;;12.52;9.23;;;6.00;99.90;;;;;;6200030;23;20334;-63
2024/01/02 12:28:09;;;;;;;;;;;5.90;99.90;;;;;;6201159;23;20006;-63
2024/01/02 12:30:55;;;;;;;19.38;15.85;;;6.10;99.90;;;;;;6199617;23;19904;-64
2024/01/02 12:33:35;;;;;;;20.58;18.35;;;6.20;99.90;;;;;;6199156;23;20005;-63
2024/01/02 12:36:09;;;;;;;21.10;15.98;;;6.30;99.90;;;;;;6198505;23;20013;-63
2024/01/02 12:38:57;;;;;;;16.15;12.95;;;6.40;99.90;;;;;;6198426;23;20000;-63
2024/01/02 12:41:29;;;;;;;17.75;10.80;;;6.60;99.90;;;;;;6198567;23;20365;-63
2024/01/02 12:43:59;;;;;;;13.75;10.20;;;6.60;99.90;;;;;;6199464;23;20016;-63
2024/01/02 12:46:55;;;;;;;17.52;12.75;;;6.60;99.90;;;;;;6197196;23;20086;-63
2024/01/02 12:49:28;;;;;;;17.83;12.10;;;6.40;99.90;;;;;;6194063;23;20012;-62
2024/01/02 12:52:04;;;;;;;17.45;13.00;;;6.40;99.90;;;;;;6196623;23;20458;-62
2024/01/02 12:54:30;;;;;;;14.43;11.30;;;6.40;99.90;;;;;;6197799;23;20425;-62
2024/01/02 12:57:02;;;;;;;23.38;14.07;;;6.50;99.90;;;;;;6199757;23;20008;-62
2024/01/02 12:59:31;;;;;;;27.77;12.75;;;6.40;99.90;;;;;;6196248;23;20027;-63
2024/01/02 13:01:58;;;;;;;16.75;10.13;;;6.40;99.90;;;;;;6196424;23;20026;-62
2024/01/02 13:04:25;;;;;;;27.30;18.67;;;6.50;99.90;;;;;;6195963;23;20535;-62
2024/01/02 13:06:52;;;;;;;33.80;21.35;;;6.50;99.90;;;;;;6195060;23;20005;-62